createdAt,value
2019-03-27T06:20:06.644Z,7.67
2019-03-27T06:48:39.822Z,7.90
2019-03-27T06:51:08.801Z,7.77
2019-03-27T06:53:37.992Z,7.40
2019-03-27T06:56:07.479Z,7.10
2019-03-27T06:58:36.438Z,6.90
2019-03-27T07:01:06.667Z,7.13
2019-03-27T07:03:39.112Z,7.03
2019-03-27T07:06:25.577Z,7.23
2019-03-27T07:08:58.163Z,6.40
2019-03-27T07:11:31.134Z,6.20
2019-03-27T07:14:00.185Z,6.93
2019-03-27T07:16:29.056Z,6.47
2019-03-27T07:19:00.403Z,5.17
2019-03-27T09:08:44.531Z,4.40
2019-03-27T09:11:15.655Z,5.13
2019-03-27T09:13:46.921Z,5.23
2019-03-27T09:19:36.100Z,4.83
2019-03-27T09:22:01.312Z,4.50
2019-03-27T09:24:31.057Z,5.30
2019-03-27T09:27:03.497Z,4.87
2019-03-27T09:29:33.212Z,4.57
2019-03-27T09:32:06.635Z,5.30
2019-03-27T09:34:41.327Z,5.57
2019-03-27T09:37:14.241Z,4.87
2019-03-27T09:39:46.288Z,4.63
2019-03-27T09:42:15.728Z,4.67
2019-03-27T09:44:44.869Z,5.23
2019-03-27T09:47:14.476Z,4.63
2019-03-27T09:49:49.702Z,4.63
2019-03-27T09:52:15.635Z,4.67
2019-03-27T09:54:45.141Z,4.50
2019-03-27T09:57:14.724Z,4.50
2019-03-27T09:59:43.859Z,4.57
2019-03-27T10:02:16.674Z,4.40
2019-03-27T10:04:50.819Z,4.80
2019-03-27T10:07:20.178Z,4.67
2019-03-27T10:09:50.430Z,4.80
2019-03-27T10:12:19.578Z,4.90
2019-03-27T10:14:48.744Z,4.93
2019-03-27T10:17:17.865Z,4.27
2019-03-27T10:19:46.963Z,4.77
2019-03-27T10:22:16.077Z,4.80
2019-03-27T10:24:45.456Z,5.20
2019-03-27T10:27:14.813Z,5.13
2019-03-27T10:29:43.769Z,5.33
2019-03-27T10:32:12.881Z,5.90
2019-03-27T10:34:42.036Z,5.83
2019-03-27T10:37:11.209Z,5.77
2019-03-27T10:39:40.229Z,5.37
2019-03-27T10:42:12.031Z,6.53
2019-03-27T10:44:41.349Z,6.03
2019-03-27T10:47:10.569Z,6.80
2019-03-27T10:49:40.577Z,6.03
2019-03-27T10:52:09.892Z,6.30
2019-03-27T10:54:39.184Z,6.63
2019-03-27T10:57:08.520Z,6.80
2019-03-27T10:59:37.941Z,6.60
2019-03-27T11:02:07.296Z,6.13
2019-03-27T11:04:36.900Z,7.10
2019-03-27T11:07:08.076Z,7.37
2019-03-27T11:09:39.661Z,7.30
2019-03-27T11:12:09.143Z,7.53
2019-03-27T11:14:38.560Z,7.43
2019-03-27T11:33:31.517Z,7.17
2019-03-27T11:36:00.668Z,7.73
2019-03-27T11:38:32.463Z,7.13
2019-03-27T11:41:01.690Z,7.40
2019-03-27T11:43:30.595Z,7.23
2019-03-27T11:45:59.406Z,6.80
2019-03-27T11:48:28.280Z,6.93
2019-03-27T11:50:57.049Z,7.47
2019-03-27T11:53:25.680Z,7.47
2019-03-27T11:55:54.421Z,7.20
2019-03-27T11:58:23.150Z,7.60
2019-03-27T12:00:54.817Z,7.57
2019-03-27T12:03:22.475Z,7.53
2019-03-27T12:05:52.761Z,7.57
2019-03-27T12:08:23.596Z,7.73
2019-03-27T12:10:52.388Z,7.90
2019-03-27T12:13:21.357Z,6.23
2019-03-27T12:15:50.125Z,6.30
2019-03-27T12:18:18.953Z,6.20
2019-03-27T12:20:58.384Z,7.17
2019-03-27T12:23:18.276Z,6.67
2019-03-27T12:25:47.161Z,5.87
2019-03-27T12:28:16.167Z,5.90
2019-03-27T12:30:44.998Z,5.90
2019-03-27T12:33:13.882Z,6.47
2019-03-27T12:35:42.665Z,6.07
2019-03-27T12:38:11.493Z,6.37
2019-03-27T12:40:43.882Z,6.47
2019-03-27T12:43:12.670Z,6.50
2019-03-27T12:45:41.461Z,6.07
2019-03-27T12:48:10.150Z,5.60
2019-03-27T12:50:38.879Z,5.97
2019-03-27T12:53:07.883Z,5.20
2019-03-27T12:55:36.693Z,5.10
2019-03-27T12:58:05.527Z,5.37
2019-03-27T13:00:34.243Z,6.10
2019-03-27T13:03:02.996Z,5.27
2019-03-27T13:05:31.754Z,4.50
2019-03-27T13:08:00.431Z,5.30
2019-03-27T13:10:29.173Z,5.90
2019-03-27T13:12:58.215Z,5.37
2019-03-27T13:15:27.234Z,5.57
2019-03-27T13:17:58.074Z,5.30
2019-03-27T13:20:27.143Z,5.03
2019-03-27T13:22:56.243Z,5.10
2019-03-27T13:25:25.603Z,4.90
2019-03-27T13:27:58.301Z,5.50
2019-03-27T13:30:27.557Z,5.90
2019-03-27T13:32:56.777Z,5.40
2019-03-27T13:35:25.883Z,4.53
2019-03-27T13:37:57.985Z,4.83
2019-03-27T13:40:27.036Z,5.43
2019-03-27T13:42:57.126Z,4.50
2019-03-27T13:45:26.202Z,4.53
2019-03-27T13:47:55.329Z,4.07
2019-03-27T13:50:24.524Z,4.47
2019-03-27T13:52:53.921Z,4.50
2019-03-27T13:55:23.026Z,3.70
2019-03-27T13:57:52.130Z,3.73
2019-03-27T14:00:21.320Z,3.40
2019-03-27T14:02:50.358Z,4.37
2019-03-27T14:05:19.393Z,5.33
2019-03-27T14:07:48.426Z,4.27
2019-03-27T14:10:17.404Z,4.97
2019-03-27T14:12:46.518Z,6.60
2019-03-27T14:15:15.748Z,6.37
2019-03-27T14:17:44.741Z,4.57
2019-03-27T14:20:16.502Z,3.40
2019-03-27T14:22:46.901Z,5.23
2019-03-27T14:25:16.201Z,5.23
2019-03-27T14:27:45.659Z,4.60
2019-03-27T14:30:16.489Z,4.93
2019-03-27T14:32:46.618Z,5.30
2019-03-27T14:35:15.667Z,5.10
2019-03-27T14:37:44.910Z,5.60
2019-03-27T14:40:14.115Z,6.10
2019-03-27T14:42:43.406Z,5.63
2019-03-27T14:45:18.648Z,5.70
2019-03-27T14:47:50.891Z,5.47
2019-03-27T14:50:24.938Z,5.40
2019-03-27T14:52:54.546Z,6.60
2019-03-27T14:55:24.454Z,6.20
2019-03-27T14:57:56.022Z,6.13
2019-03-27T15:00:26.196Z,6.30
2019-03-27T15:02:56.958Z,6.33
2019-03-27T15:05:32.855Z,6.97
2019-03-27T15:08:05.438Z,6.73
2019-03-27T15:10:41.496Z,6.50
2019-03-27T15:13:15.619Z,6.63
2019-03-27T15:15:50.400Z,6.77
2019-03-27T15:18:29.083Z,7.80
2019-03-27T15:21:00.453Z,7.73
2019-03-27T15:23:42.205Z,8.23
2019-03-27T15:26:19.650Z,8.50
2019-03-27T15:28:51.422Z,8.07
2019-03-27T15:31:23.028Z,6.60
2019-03-27T15:34:16.475Z,5.53
2019-03-27T15:37:23.303Z,5.90
2019-03-27T15:39:38.336Z,5.33
2019-03-27T15:43:15.767Z,5.30
2019-03-27T15:46:43.216Z,5.13
2019-03-27T15:48:33.491Z,5.33
2019-03-27T15:51:13.538Z,5.50
2019-03-27T15:53:53.551Z,4.23
2019-03-27T15:56:22.346Z,4.30
2019-03-27T15:58:51.117Z,4.37
2019-03-27T16:01:20.526Z,6.23
2019-03-27T16:03:49.520Z,8.33
2019-03-27T16:06:18.627Z,9.00
2019-03-27T16:08:47.816Z,8.30
2019-03-27T16:11:16.885Z,9.73
2019-03-27T16:13:47.729Z,10.17
2019-03-27T16:16:16.852Z,10.70
2019-03-27T16:18:45.834Z,12.03
2019-03-27T16:21:18.099Z,12.23
2019-03-27T16:23:47.416Z,12.17
2019-03-27T16:26:16.543Z,12.53
2019-03-27T16:28:45.808Z,12.07
2019-03-27T16:31:14.864Z,12.47
2019-03-27T16:33:43.957Z,11.50
2019-03-27T16:36:13.257Z,12.23
2019-03-27T16:38:45.130Z,12.70
2019-03-27T16:41:14.832Z,14.23
2019-03-27T16:43:44.449Z,13.70
2019-03-27T16:46:19.307Z,14.40
2019-03-27T16:48:50.444Z,14.10
2019-03-27T16:51:25.394Z,14.80
2019-03-27T16:53:55.572Z,15.97
2019-03-27T16:56:25.105Z,15.57
2019-03-27T16:58:57.284Z,15.87
2019-03-27T17:01:29.845Z,15.00
2019-03-27T17:04:11.640Z,15.07
2019-03-27T17:06:40.555Z,14.97
2019-03-27T17:09:14.752Z,16.17
2019-03-27T17:11:43.946Z,15.63
2019-03-27T17:14:13.077Z,16.23
2019-03-27T17:16:42.392Z,14.60
2019-03-27T17:19:12.162Z,15.10
2019-03-27T17:21:43.238Z,14.83
2019-03-27T17:24:17.060Z,13.93
2019-03-27T17:26:46.077Z,14.07
2019-03-27T17:29:15.184Z,12.83
2019-03-27T17:31:44.159Z,14.07
2019-03-27T17:34:13.421Z,13.47
2019-03-27T17:36:42.709Z,11.00
2019-03-27T17:39:11.733Z,11.13
2019-03-27T17:41:40.742Z,10.23
2019-03-27T17:44:09.734Z,11.50
2019-03-27T17:46:38.833Z,11.27
2019-03-27T17:49:12.016Z,10.43
2019-03-27T17:51:41.169Z,10.90
2019-03-27T17:54:20.368Z,9.77
2019-03-27T17:56:40.952Z,10.67
2019-03-27T17:59:09.770Z,10.03
2019-03-27T18:01:38.831Z,10.00
2019-03-27T18:04:07.727Z,9.23
2019-03-27T18:06:37.670Z,10.10
2019-03-27T18:09:09.479Z,9.10
2019-03-27T18:11:38.421Z,8.27
2019-03-27T18:14:11.713Z,8.77
2019-03-27T18:16:45.729Z,8.07
2019-03-27T18:19:14.361Z,7.80
2019-03-27T18:21:43.448Z,7.43
2019-03-27T18:24:12.424Z,7.40
2019-03-27T18:26:41.570Z,7.97
2019-03-27T18:29:10.560Z,8.17
2019-03-27T18:31:39.411Z,8.50
2019-03-27T18:34:08.770Z,8.13
2019-03-27T18:36:37.917Z,7.80
2019-03-27T18:39:08.085Z,8.27
2019-03-27T18:41:37.047Z,7.90
2019-03-27T18:44:28.104Z,8.03
2019-03-27T18:46:56.962Z,7.77
2019-03-27T18:49:29.884Z,8.07
2019-03-27T18:51:58.915Z,8.37
2019-03-27T18:54:28.198Z,7.70
2019-03-27T18:56:57.034Z,8.27
2019-03-27T18:59:31.991Z,8.73
2019-03-27T19:02:01.099Z,9.10
2019-03-27T19:04:29.981Z,7.97
2019-03-27T19:06:59.059Z,8.80
2019-03-27T19:09:27.954Z,9.13
2019-03-27T19:11:56.807Z,8.87
2019-03-27T19:14:25.711Z,8.87
2019-03-27T19:16:54.650Z,9.57
2019-03-27T19:19:23.725Z,9.43
2019-03-27T19:21:52.697Z,9.97
2019-03-27T19:24:24.983Z,10.27
2019-03-27T19:26:53.798Z,10.87
2019-03-27T19:29:22.862Z,10.97
2019-03-27T19:31:51.763Z,11.00
2019-03-27T19:34:20.657Z,10.80
2019-03-27T19:36:49.603Z,12.30
2019-03-27T19:39:18.554Z,11.97
2019-03-27T19:41:47.669Z,11.43
2019-03-27T19:44:16.684Z,13.50
2019-03-27T19:46:45.711Z,13.23
2019-03-27T19:49:14.663Z,13.43
2019-03-27T19:51:43.536Z,12.40
2019-03-27T19:54:26.201Z,13.10
2019-03-27T19:56:43.291Z,12.80
2019-03-27T19:59:15.050Z,12.57
2019-03-27T20:01:44.082Z,13.83
2019-03-27T20:04:13.259Z,13.13
2019-03-27T20:06:42.177Z,13.83
2019-03-27T20:09:11.343Z,14.20
2019-03-27T20:11:40.272Z,15.47
2019-03-27T20:14:09.406Z,14.57
2019-03-27T20:16:38.598Z,14.63
2019-03-27T20:19:07.546Z,14.10
2019-03-27T20:21:36.483Z,15.20
2019-03-27T20:24:05.671Z,15.00
2019-03-27T20:26:34.777Z,15.13
2019-03-27T20:29:07.036Z,14.83
2019-03-27T20:31:35.978Z,15.70
2019-03-27T20:34:05.041Z,15.23
2019-03-27T20:36:34.118Z,15.77
2019-03-27T20:39:03.485Z,15.97
2019-03-27T20:41:42.977Z,15.70
2019-03-27T20:44:13.630Z,16.20
2019-03-27T20:46:42.609Z,17.33
2019-03-27T20:49:11.865Z,17.37
2019-03-27T20:51:40.961Z,17.53
2019-03-27T20:54:10.334Z,17.10
2019-03-27T20:56:41.104Z,17.73
2019-03-27T20:59:10.290Z,16.80
2019-03-27T21:01:40.023Z,17.17
2019-03-27T21:04:13.127Z,15.83
2019-03-27T21:06:43.866Z,16.20
2019-03-27T21:09:13.191Z,15.90
2019-03-27T21:11:44.790Z,15.50
2019-03-27T21:14:13.962Z,15.00
2019-03-27T21:16:43.159Z,15.33
2019-03-27T21:19:12.541Z,16.67
2019-03-27T21:22:09.358Z,16.13
2019-03-27T21:24:39.134Z,14.83
2019-03-27T21:27:11.334Z,13.63
2019-03-27T21:29:40.563Z,14.07
2019-03-27T21:32:10.244Z,14.90
2019-03-27T21:35:03.724Z,14.50
2019-03-27T21:37:35.818Z,15.00
2019-03-27T21:40:10.102Z,13.67
